createdAt,value
2023-05-13T00:01:12.555Z,3.20
2023-05-13T00:03:39.133Z,3.70
2023-05-13T00:06:05.923Z,4.15
2023-05-13T00:10:58.881Z,3.20
2023-05-13T00:13:25.381Z,3.00
2023-05-13T00:15:52.035Z,3.72
2023-05-13T00:18:18.662Z,3.53
2023-05-13T00:20:45.307Z,3.78
2023-05-13T00:23:11.814Z,3.45
2023-05-13T00:25:38.322Z,4.28
2023-05-13T00:28:05.103Z,3.17
2023-05-13T00:32:58.785Z,3.28
2023-05-13T00:35:25.280Z,3.40
2023-05-13T00:37:52.167Z,3.65
2023-05-13T00:40:24.330Z,3.40
2023-05-13T00:42:51.631Z,4.68
2023-05-13T00:45:18.516Z,3.28
2023-05-13T00:47:45.445Z,4.05
2023-05-13T00:50:12.160Z,3.75
2023-05-13T00:52:40.614Z,3.30
2023-05-13T00:55:08.509Z,3.70
2023-05-13T00:57:36.083Z,3.72
2023-05-13T01:00:05.855Z,3.63
2023-05-13T01:02:39.549Z,4.57
2023-05-13T01:05:41.301Z,3.75
2023-05-13T01:08:32.008Z,3.75
2023-05-13T01:11:14.303Z,3.65
2023-05-13T01:13:43.510Z,4.07
2023-05-13T01:16:19.137Z,3.88
2023-05-13T01:18:52.463Z,3.47
2023-05-13T01:21:29.278Z,3.60
2023-05-13T01:23:56.163Z,4.32
2023-05-13T01:26:24.320Z,4.18
2023-05-13T01:28:51.230Z,3.70
2023-05-13T01:31:19.411Z,4.07
2023-05-13T01:33:47.512Z,3.97
2023-05-13T01:51:45.723Z,3.92
2023-05-13T01:54:12.172Z,4.35
2023-05-13T01:56:39.022Z,4.40
2023-05-13T01:59:05.530Z,5.25
2023-05-13T02:01:32.129Z,3.80
2023-05-13T02:04:00.138Z,3.92
2023-05-13T02:06:28.005Z,3.80
2023-05-13T02:08:54.815Z,4.07
2023-05-13T02:13:48.465Z,4.93
2023-05-13T02:16:17.518Z,4.30
2023-05-13T02:18:44.601Z,4.63
2023-05-13T02:21:11.137Z,4.30
2023-05-13T02:23:37.606Z,4.20
2023-05-13T02:26:04.085Z,4.65
2023-05-13T02:28:30.566Z,4.68
2023-05-13T02:30:56.967Z,4.55
2023-05-13T02:33:23.525Z,4.32
2023-05-13T02:35:50.381Z,4.40
2023-05-13T02:40:43.234Z,3.83
2023-05-13T02:43:09.718Z,4.03
2023-05-13T02:45:36.198Z,4.45
2023-05-13T02:48:02.790Z,4.35
2023-05-13T02:50:29.306Z,4.55
2023-05-13T02:52:55.771Z,4.35
2023-05-13T02:55:22.317Z,5.30
2023-05-13T02:57:48.896Z,5.00
2023-05-13T03:00:15.948Z,4.13
2023-05-13T03:02:42.466Z,5.38
2023-05-13T03:05:09.503Z,3.90
2023-05-13T03:07:35.973Z,4.50
2023-05-13T03:10:04.963Z,4.60
2023-05-13T03:12:31.504Z,4.28
2023-05-13T03:14:57.980Z,4.60
2023-05-13T03:17:25.499Z,3.92
2023-05-13T03:19:52.048Z,4.65
2023-05-13T03:22:18.613Z,4.40
2023-05-13T03:24:45.318Z,3.85
2023-05-13T03:27:11.789Z,4.45
2023-05-13T03:29:38.310Z,4.45
2023-05-13T03:32:06.566Z,4.50
2023-05-13T03:34:33.559Z,4.18
2023-05-13T03:36:59.983Z,4.15
2023-05-13T03:39:26.549Z,4.68
2023-05-13T03:41:52.983Z,4.28
2023-05-13T03:44:19.466Z,4.82
2023-05-13T03:46:45.932Z,4.47
2023-05-13T03:49:12.487Z,4.28
2023-05-13T03:51:39.159Z,4.50
2023-05-13T03:54:05.697Z,4.55
2023-05-13T03:56:32.166Z,4.80
2023-05-13T03:58:58.594Z,4.03
2023-05-13T04:01:25.082Z,4.40
2023-05-13T04:03:51.685Z,4.40
2023-05-13T04:06:18.182Z,4.20
2023-05-13T04:15:31.869Z,3.92
2023-05-13T04:17:58.857Z,4.82
2023-05-13T04:20:25.861Z,4.68
2023-05-13T04:22:52.579Z,4.32
2023-05-13T04:25:19.066Z,4.93
2023-05-13T04:27:47.587Z,4.93
2023-05-13T04:34:19.510Z,4.38
2023-05-13T04:36:46.637Z,3.88
2023-05-13T04:39:13.114Z,4.35
2023-05-13T04:41:39.543Z,4.50
2023-05-13T04:44:07.114Z,3.97
2023-05-13T04:46:33.585Z,3.80
2023-05-13T04:49:00.192Z,4.10
2023-05-13T04:51:26.732Z,5.40
2023-05-13T04:53:53.711Z,4.30
2023-05-13T04:56:20.749Z,4.72
2023-05-13T04:58:47.213Z,4.53
2023-05-13T05:01:13.707Z,5.40
2023-05-13T05:03:40.369Z,4.57
2023-05-13T05:06:07.038Z,3.53
2023-05-13T05:11:01.723Z,3.80
2023-05-13T05:13:28.187Z,4.63
2023-05-13T05:15:54.738Z,4.30
2023-05-13T05:18:21.263Z,4.53
2023-05-13T05:20:47.802Z,3.95
2023-05-13T05:23:14.354Z,3.97
2023-05-13T05:25:40.896Z,4.75
2023-05-13T05:28:09.321Z,4.10
2023-05-13T05:30:39.919Z,3.88
2023-05-13T05:33:08.000Z,4.38
2023-05-13T05:35:37.335Z,4.00
2023-05-13T05:38:08.447Z,4.10
2023-05-13T05:40:39.009Z,4.45
2023-05-13T05:43:05.498Z,3.97
2023-05-13T05:45:31.980Z,3.67
2023-05-13T05:47:58.503Z,4.20
2023-05-13T05:50:24.952Z,4.05
2023-05-13T05:52:51.468Z,3.95
2023-05-13T05:55:18.024Z,3.83
2023-05-13T05:57:44.443Z,3.80
2023-05-13T06:00:12.143Z,4.13
2023-05-13T06:02:57.360Z,3.60
2023-05-13T06:05:23.895Z,3.67
2023-05-13T06:07:50.451Z,3.58
2023-05-13T06:10:17.090Z,3.45
2023-05-13T06:12:43.859Z,4.90
2023-05-13T06:17:38.446Z,3.83
2023-05-13T06:20:05.995Z,4.05
2023-05-13T06:22:32.482Z,3.78
2023-05-13T06:24:58.949Z,2.92
2023-05-13T06:27:25.676Z,3.30
2023-05-13T06:29:52.126Z,3.42
2023-05-13T06:32:18.670Z,3.60
2023-05-13T06:34:45.911Z,3.40
2023-05-13T06:37:13.689Z,3.53
2023-05-13T06:39:40.663Z,3.10
2023-05-13T06:42:07.250Z,3.05
2023-05-13T06:44:33.741Z,3.78
2023-05-13T06:47:00.899Z,3.10
2023-05-13T06:49:27.371Z,3.80
2023-05-13T06:51:53.967Z,3.35
2023-05-13T06:54:20.411Z,3.25
2023-05-13T06:56:46.967Z,3.25
2023-05-13T07:03:01.003Z,3.08
2023-05-13T07:05:27.476Z,2.58
2023-05-13T07:07:57.029Z,3.05
2023-05-13T07:10:25.057Z,2.75
2023-05-13T07:12:51.736Z,3.10
2023-05-13T07:15:18.212Z,2.67
2023-05-13T07:17:44.743Z,3.00
2023-05-13T07:20:11.546Z,3.10
2023-05-13T07:25:04.825Z,3.03
2023-05-13T07:29:58.101Z,3.00
2023-05-13T07:32:24.605Z,2.90
2023-05-13T07:34:51.177Z,2.72
2023-05-13T07:37:17.682Z,2.55
2023-05-13T07:39:44.148Z,2.55
2023-05-13T07:42:23.289Z,2.42
2023-05-13T07:44:50.069Z,2.38
2023-05-13T07:47:16.738Z,2.47
2023-05-13T07:49:43.263Z,2.15
2023-05-13T07:52:09.920Z,2.30
2023-05-13T07:57:05.268Z,2.28
2023-05-13T07:59:32.021Z,2.55
2023-05-13T08:01:58.589Z,1.73
2023-05-13T08:04:25.424Z,2.17
2023-05-13T08:06:51.966Z,2.38
2023-05-13T08:09:18.561Z,2.22
2023-05-13T08:14:11.556Z,2.28
2023-05-13T08:16:38.147Z,2.17
2023-05-13T08:19:04.985Z,2.42
2023-05-13T08:21:32.634Z,2.53
2023-05-13T08:23:59.081Z,2.33
2023-05-13T08:26:25.530Z,2.40
2023-05-13T08:28:54.646Z,2.15
2023-05-13T08:31:21.799Z,2.70
2023-05-13T08:33:48.719Z,2.65
2023-05-13T08:36:15.677Z,2.50
2023-05-13T08:38:43.517Z,2.47
2023-05-13T08:41:13.925Z,2.65
2023-05-13T08:43:41.022Z,2.55
2023-05-13T08:46:11.991Z,3.88
2023-05-13T08:48:40.983Z,2.20
2023-05-13T08:51:10.800Z,2.80
2023-05-13T08:53:40.000Z,1.85
2023-05-13T08:56:09.283Z,2.55
2023-05-13T08:58:35.921Z,3.10
2023-05-13T09:03:29.581Z,3.20
2023-05-13T09:05:56.407Z,2.90
2023-05-13T09:08:22.826Z,3.22
2023-05-13T09:10:49.450Z,2.85
2023-05-13T09:15:44.920Z,2.28
2023-05-13T09:18:12.980Z,2.63
2023-05-13T09:20:39.641Z,2.78
2023-05-13T09:23:08.378Z,2.83
2023-05-13T09:25:36.982Z,2.95
2023-05-13T09:28:05.465Z,2.63
2023-05-13T09:30:40.619Z,2.40
2023-05-13T09:33:11.996Z,2.20
2023-05-13T09:35:43.913Z,2.53
2023-05-13T09:38:26.946Z,2.50
2023-05-13T09:40:58.143Z,2.78
2023-05-13T09:43:34.159Z,2.50
2023-05-13T09:46:05.170Z,2.15
2023-05-13T09:48:33.301Z,2.75
2023-05-13T09:51:00.171Z,2.75
2023-05-13T09:53:28.098Z,2.58
2023-05-13T09:55:56.730Z,2.38
2023-05-13T09:58:24.566Z,2.72
2023-05-13T10:00:52.075Z,2.63
2023-05-13T10:03:18.788Z,2.50
2023-05-13T10:05:45.738Z,2.53
2023-05-13T10:08:13.944Z,2.10
2023-05-13T10:10:51.352Z,2.58
2023-05-13T10:13:20.107Z,2.15
2023-05-13T10:15:52.608Z,2.70
2023-05-13T10:18:20.402Z,2.50
2023-05-13T10:20:54.306Z,2.28
2023-05-13T10:23:22.688Z,2.40
2023-05-13T10:25:50.768Z,2.10
2023-05-13T10:28:17.801Z,2.60
2023-05-13T10:30:45.065Z,2.70
2023-05-13T10:33:12.133Z,2.22
2023-05-13T10:35:43.309Z,2.67
2023-05-13T10:38:40.909Z,2.22
2023-05-13T10:41:45.082Z,2.55
2023-05-13T10:44:12.467Z,1.98
2023-05-13T10:46:39.818Z,2.22
2023-05-13T10:49:14.689Z,2.10
2023-05-13T10:51:45.199Z,2.28
2023-05-13T10:54:22.478Z,1.98
2023-05-13T10:56:59.304Z,2.15
2023-05-13T10:59:32.647Z,2.35
2023-05-13T11:02:20.940Z,1.95
2023-05-13T11:05:00.885Z,2.38
2023-05-13T11:07:30.803Z,1.88
2023-05-13T11:09:57.306Z,1.88
2023-05-13T11:12:23.772Z,1.90
2023-05-13T11:14:51.822Z,1.92
2023-05-13T11:17:20.694Z,3.60
2023-05-13T11:19:49.977Z,1.95
2023-05-13T11:22:20.468Z,2.38
2023-05-13T11:25:12.873Z,2.00
2023-05-13T11:27:41.454Z,2.00
2023-05-13T11:30:21.708Z,2.47
2023-05-13T11:32:51.558Z,1.95
2023-05-13T11:35:32.592Z,2.03
2023-05-13T11:38:01.021Z,2.05
2023-05-13T11:40:32.788Z,2.10
2023-05-13T11:43:00.689Z,2.28
2023-05-13T11:45:28.552Z,2.10
2023-05-13T11:47:56.397Z,2.75
2023-05-13T11:50:30.819Z,1.67
2023-05-13T11:52:59.409Z,1.80
2023-05-13T11:55:27.394Z,2.17
2023-05-13T11:57:54.344Z,2.30
2023-05-13T12:00:31.319Z,2.13
2023-05-13T12:03:01.191Z,2.60
2023-05-13T12:05:28.115Z,2.58
2023-05-13T12:07:58.654Z,2.50
2023-05-13T12:10:26.463Z,2.08
2023-05-13T12:12:53.385Z,1.98
2023-05-13T12:15:21.622Z,2.38
2023-05-13T12:17:49.446Z,2.30
2023-05-13T12:20:18.056Z,2.30
2023-05-13T12:22:44.491Z,2.08
2023-05-13T12:25:46.689Z,2.15
2023-05-13T12:28:23.206Z,2.28
2023-05-13T12:30:58.310Z,2.85
2023-05-13T12:33:32.817Z,2.55
2023-05-13T12:36:15.414Z,2.50
2023-05-13T12:39:00.201Z,2.05
2023-05-13T12:41:31.617Z,1.90
2023-05-13T12:43:59.703Z,2.50
2023-05-13T12:46:26.935Z,2.50
2023-05-13T12:48:56.435Z,1.83
2023-05-13T12:51:23.398Z,2.15
2023-05-13T12:53:49.942Z,1.88
2023-05-13T12:56:16.363Z,2.00
2023-05-13T12:58:42.967Z,2.22
2023-05-13T13:03:36.173Z,2.30
2023-05-13T13:06:02.811Z,2.78
2023-05-13T13:08:30.544Z,2.42
2023-05-13T13:10:58.283Z,1.90
2023-05-13T13:13:24.744Z,2.00
2023-05-13T13:15:54.620Z,1.95
2023-05-13T13:18:21.301Z,2.80
2023-05-13T13:20:47.723Z,2.08
2023-05-13T13:23:14.172Z,2.88
2023-05-13T13:25:40.738Z,2.28
2023-05-13T13:28:07.231Z,2.15
2023-05-13T13:30:33.833Z,2.53
2023-05-13T13:35:26.948Z,2.58
2023-05-13T13:37:54.467Z,2.05
2023-05-13T13:40:21.326Z,2.70
2023-05-13T13:42:50.761Z,2.15
2023-05-13T13:45:18.087Z,2.53
2023-05-13T13:47:45.076Z,2.55
2023-05-13T13:50:11.726Z,1.90
2023-05-13T13:55:04.956Z,2.38
2023-05-13T13:57:31.423Z,2.38
2023-05-13T13:59:57.889Z,1.83
2023-05-13T14:02:24.450Z,2.85
2023-05-13T14:07:17.491Z,2.35
2023-05-13T14:09:44.015Z,2.42
2023-05-13T14:12:10.473Z,2.92
2023-05-13T14:14:36.934Z,2.70
2023-05-13T14:17:03.589Z,2.92
2023-05-13T14:21:56.576Z,2.42
2023-05-13T14:24:23.391Z,2.42
2023-05-13T14:26:49.877Z,2.25
2023-05-13T14:29:16.307Z,2.70
2023-05-13T14:31:42.815Z,1.85
2023-05-13T14:34:09.267Z,2.88
2023-05-13T14:36:36.026Z,2.17
2023-05-13T14:41:29.576Z,5.65
2023-05-13T14:43:56.017Z,3.78
2023-05-13T14:46:22.479Z,4.38
2023-05-13T14:48:48.967Z,3.17
2023-05-13T14:51:15.562Z,2.55
2023-05-13T14:53:42.448Z,2.20
2023-05-13T14:56:08.897Z,4.68
2023-05-13T14:58:35.402Z,4.32
2023-05-13T15:01:02.050Z,5.38
2023-05-13T15:05:56.111Z,3.15
2023-05-13T15:08:22.719Z,3.25
2023-05-13T15:13:15.843Z,2.30
2023-05-13T15:15:42.348Z,2.47
2023-05-13T15:18:08.811Z,2.20
2023-05-13T15:20:35.334Z,2.45
2023-05-13T15:23:01.785Z,2.55
2023-05-13T15:25:28.255Z,2.83
2023-05-13T15:27:54.725Z,2.42
2023-05-13T15:30:21.404Z,2.45
2023-05-13T15:32:48.019Z,2.20
2023-05-13T15:37:42.745Z,2.60
2023-05-13T15:40:09.778Z,2.58
2023-05-13T15:42:36.854Z,3.22
2023-05-13T15:45:03.872Z,4.15
2023-05-13T15:47:33.177Z,3.80
2023-05-13T15:50:00.007Z,5.57
2023-05-13T15:52:27.734Z,3.72
2023-05-13T15:54:54.175Z,3.95
2023-05-13T15:57:20.765Z,4.35
2023-05-13T16:02:13.668Z,3.65
2023-05-13T16:07:11.143Z,4.25
2023-05-13T16:09:43.262Z,2.60
2023-05-13T16:12:10.156Z,4.10
2023-05-13T16:14:45.953Z,2.72
2023-05-13T16:17:23.290Z,3.15
2023-05-13T16:19:53.143Z,2.92
2023-05-13T16:22:33.862Z,3.05
2023-05-13T16:25:02.337Z,3.15
2023-05-13T16:27:29.451Z,2.92
2023-05-13T16:29:58.296Z,3.35
2023-05-13T16:32:25.512Z,3.70
2023-05-13T16:34:53.645Z,4.03
2023-05-13T16:37:20.399Z,3.45
2023-05-13T16:39:47.241Z,4.18
2023-05-13T16:42:13.851Z,3.70
2023-05-13T16:47:08.858Z,3.92
2023-05-13T16:49:36.573Z,4.65
2023-05-13T16:52:04.356Z,3.60
2023-05-13T16:54:31.350Z,4.05
2023-05-13T16:57:05.402Z,4.47
2023-05-13T16:59:31.876Z,4.05
2023-05-13T17:02:00.009Z,3.22
2023-05-13T17:04:28.387Z,3.20
2023-05-13T17:06:59.262Z,3.10
2023-05-13T17:09:26.174Z,3.05
2023-05-13T17:14:19.311Z,2.65
2023-05-13T17:16:56.915Z,3.15
2023-05-13T17:19:30.406Z,3.17
2023-05-13T17:21:59.414Z,3.03
2023-05-13T17:24:29.313Z,3.25
2023-05-13T17:26:56.695Z,2.90
2023-05-13T17:29:25.455Z,3.35
2023-05-13T17:32:19.268Z,3.22
2023-05-13T17:35:17.516Z,2.85
2023-05-13T17:38:22.688Z,2.80
2023-05-13T17:44:44.832Z,2.80
2023-05-13T17:47:04.223Z,3.42
2023-05-13T17:53:58.610Z,2.90
2023-05-13T17:56:35.293Z,2.75
2023-05-13T17:59:19.651Z,2.90
2023-05-13T18:02:13.120Z,2.80
2023-05-13T18:04:41.283Z,2.97
2023-05-13T18:07:13.747Z,2.95
2023-05-13T18:09:41.938Z,2.60
2023-05-13T18:12:18.503Z,2.72
2023-05-13T18:14:54.963Z,2.70
2023-05-13T18:17:32.786Z,2.93
2023-05-13T18:20:07.846Z,3.88
2023-05-13T18:22:35.688Z,2.50
2023-05-13T18:25:15.554Z,2.90
2023-05-13T18:30:56.027Z,3.15
2023-05-13T18:33:28.099Z,3.00
2023-05-13T18:35:59.994Z,3.00
2023-05-13T18:38:30.050Z,2.85
2023-05-13T18:41:20.253Z,2.90
2023-05-13T18:43:57.161Z,2.88
2023-05-13T18:46:26.953Z,2.78
2023-05-13T18:49:10.732Z,2.70
2023-05-13T18:51:46.750Z,3.20
2023-05-13T18:54:14.895Z,2.70
2023-05-13T18:56:45.161Z,3.10
2023-05-13T18:59:19.014Z,3.13
2023-05-13T19:02:00.097Z,3.13
2023-05-13T19:04:27.141Z,3.22
2023-05-13T19:07:00.519Z,2.58
2023-05-13T19:09:29.392Z,3.05
2023-05-13T19:12:05.271Z,2.97
2023-05-13T19:14:32.143Z,3.60
2023-05-13T19:17:13.128Z,3.55
2023-05-13T19:19:42.422Z,2.72
2023-05-13T19:22:18.048Z,3.20
2023-05-13T19:24:52.984Z,3.60
2023-05-13T19:27:20.037Z,3.88
2023-05-13T19:29:49.464Z,3.53
2023-05-13T19:32:18.872Z,3.25
2023-05-13T19:34:47.541Z,3.90
2023-05-13T19:37:20.505Z,3.13
2023-05-13T19:39:50.652Z,2.80
2023-05-13T19:42:20.784Z,3.50
2023-05-13T19:44:56.108Z,3.28
2023-05-13T19:47:23.041Z,3.40
2023-05-13T19:53:37.094Z,3.55
2023-05-13T19:56:12.776Z,2.92
2023-05-13T19:58:40.184Z,3.50
2023-05-13T20:01:15.143Z,3.13
2023-05-13T20:03:52.267Z,3.15
2023-05-13T20:06:27.378Z,3.80
2023-05-13T20:08:58.851Z,3.00
2023-05-13T20:11:28.342Z,3.13
2023-05-13T20:14:03.593Z,3.95
2023-05-13T20:16:36.162Z,3.45
2023-05-13T20:19:05.637Z,3.75
2023-05-13T20:21:34.853Z,3.70
2023-05-13T20:24:01.686Z,4.38
2023-05-13T20:28:58.868Z,3.90
2023-05-13T20:31:28.317Z,4.07
2023-05-13T20:34:10.932Z,5.00
2023-05-13T20:36:49.862Z,5.47
2023-05-13T20:39:28.176Z,4.50
2023-05-13T20:42:00.179Z,5.55
2023-05-13T20:54:27.868Z,5.03
2023-05-13T20:56:54.492Z,5.95
2023-05-13T20:59:21.021Z,5.45
2023-05-13T21:01:57.219Z,5.07
2023-05-13T21:04:26.345Z,6.10
2023-05-13T21:06:53.034Z,5.97
2023-05-13T21:09:19.546Z,6.57
2023-05-13T21:11:46.055Z,6.30
2023-05-13T21:14:12.711Z,7.05
2023-05-13T21:16:39.154Z,7.57
2023-05-13T21:19:21.520Z,7.65
2023-05-13T21:22:06.709Z,7.57
2023-05-13T21:27:17.376Z,7.25
2023-05-13T21:32:24.793Z,8.15
2023-05-13T21:34:54.647Z,8.57
2023-05-13T21:37:21.473Z,9.50
2023-05-13T21:42:14.617Z,9.07
2023-05-13T21:44:41.551Z,10.00
2023-05-13T21:47:08.288Z,11.82
2023-05-13T21:52:01.174Z,9.50
2023-05-13T21:54:27.670Z,9.93
2023-05-13T21:56:54.202Z,9.98
2023-05-13T21:59:20.719Z,10.88
2023-05-13T22:01:47.239Z,10.25
2023-05-13T22:04:13.723Z,9.75
2023-05-13T22:06:40.157Z,9.63
2023-05-13T22:09:06.964Z,8.95
2023-05-13T22:14:00.346Z,8.55
2023-05-13T22:16:26.876Z,8.50
2023-05-13T22:18:55.824Z,9.50
2023-05-13T22:21:22.339Z,8.48
2023-05-13T22:23:49.014Z,9.07
2023-05-13T22:28:41.866Z,8.88
2023-05-13T22:31:08.415Z,9.05
2023-05-13T22:33:34.860Z,10.00
2023-05-13T22:36:01.301Z,9.25
2023-05-13T22:38:27.728Z,8.90
2023-05-13T22:40:54.169Z,9.73
2023-05-13T22:43:20.873Z,10.25
2023-05-13T22:45:47.415Z,9.88
2023-05-13T22:48:13.852Z,9.73
2023-05-13T22:50:40.406Z,9.77
2023-05-13T22:53:06.865Z,9.80
2023-05-13T22:55:33.838Z,9.50
2023-05-13T22:58:00.331Z,10.10
2023-05-13T23:00:26.785Z,8.90
2023-05-13T23:02:53.318Z,10.32
2023-05-13T23:05:19.912Z,10.18
2023-05-13T23:07:46.370Z,9.95
2023-05-13T23:10:12.805Z,10.38
2023-05-13T23:12:39.276Z,9.07
2023-05-13T23:15:07.087Z,10.88
2023-05-13T23:17:33.674Z,10.77
2023-05-13T23:20:00.453Z,10.13
2023-05-13T23:24:53.233Z,10.38
2023-05-13T23:27:19.670Z,9.73
2023-05-13T23:29:46.278Z,10.60
2023-05-13T23:32:12.730Z,10.00
2023-05-13T23:34:39.296Z,10.23
2023-05-13T23:37:05.877Z,10.10
2023-05-13T23:39:32.377Z,10.25
2023-05-13T23:41:58.848Z,9.95
2023-05-13T23:44:25.836Z,9.25
2023-05-13T23:46:52.656Z,10.10
2023-05-13T23:51:45.511Z,9.75
2023-05-13T23:54:12.013Z,11.07
2023-05-13T23:56:38.495Z,10.85
2023-05-13T23:59:05.062Z,10.00
